Hillpoint, Wisconsin
Current Conditions -  °F | °C
As of 3:56 AM on Sunday 21 Dec 2014 (Local Time) from KLNR Reporting Station
Haze Haze  
Wind Chill: 30°   Ceiling: 800
Heat Index: 35°   Visibility: 4mi
Dew Point: 29°   Wind: 6mph
Humidity: 78%   Direction: 140°SE
Pressure: 30.13"   Gusts: NA
Location:  43.39°N, 90.14°W
Report Text: KLNR 210956Z AUTO 14005KT 4SM HZ OVC008 02/M02 A3013 RMK AO2 SNB01E15 SLP207 P0000 T00171017
Loading
Personal Weather Stations






























Interactive Weather Map New forecast layout! Learn more

10-Day Weather Forecast

Advertisements
Track Severe Weather on mobile